createdAt,value
2023-01-03T00:04:37.953Z,9.99
2023-01-03T00:09:42.627Z,9.83
2023-01-03T00:14:45.541Z,9.97
2023-01-03T00:19:48.913Z,9.84
2023-01-03T00:24:54.416Z,9.73
2023-01-03T00:29:57.369Z,9.68
2023-01-03T00:35:04.778Z,9.59
2023-01-03T00:40:11.286Z,9.52
2023-01-03T00:45:19.752Z,9.46
2023-01-03T00:50:23.257Z,9.48
2023-01-03T00:55:27.531Z,9.26
2023-01-03T01:00:30.636Z,9.17
2023-01-03T01:05:33.700Z,9.24
2023-01-03T01:10:42.796Z,9.17
2023-01-03T01:15:45.735Z,9.10
2023-01-03T01:20:48.763Z,9.01
2023-01-03T01:25:53.063Z,9.10
2023-01-03T01:30:58.654Z,9.09
2023-01-03T01:36:07.096Z,8.94
2023-01-03T01:41:14.619Z,9.02
2023-01-03T01:46:23.933Z,8.92
2023-01-03T01:51:30.843Z,8.82
2023-01-03T01:56:39.012Z,8.89
2023-01-03T02:01:45.666Z,8.94
2023-01-03T02:06:49.397Z,8.90
2023-01-03T02:12:12.136Z,8.75
2023-01-03T02:17:26.956Z,8.65
2023-01-03T02:22:53.082Z,8.61
2023-01-03T02:28:26.564Z,8.73
2023-01-03T02:33:37.468Z,8.64
2023-01-03T02:38:49.749Z,8.66
2023-01-03T02:43:57.461Z,8.74
2023-01-03T02:49:08.487Z,8.77
2023-01-03T02:54:16.525Z,8.75
2023-01-03T02:59:24.498Z,8.74
2023-01-03T03:04:29.503Z,8.68
2023-01-03T03:09:32.428Z,8.68
2023-01-03T03:14:40.072Z,8.66
2023-01-03T03:20:06.195Z,8.71
2023-01-03T03:25:16.268Z,8.70
2023-01-03T03:30:24.609Z,8.81
2023-01-03T03:35:32.470Z,8.60
2023-01-03T03:40:57.832Z,8.57
2023-01-03T03:46:06.505Z,8.59
2023-01-03T03:51:19.007Z,8.62
2023-01-03T03:56:28.281Z,8.71
2023-01-03T04:01:31.982Z,8.66
2023-01-03T04:06:40.311Z,8.48
2023-01-03T04:11:43.439Z,8.49
2023-01-03T04:16:46.363Z,8.64
2023-01-03T04:21:50.697Z,8.55
2023-01-03T04:26:53.600Z,8.61
2023-01-03T04:31:56.544Z,8.68
2023-01-03T04:37:00.817Z,8.72
2023-01-03T04:42:23.709Z,8.67
2023-01-03T04:47:26.574Z,8.65
2023-01-03T04:52:31.307Z,8.65
2023-01-03T04:57:34.229Z,8.57
2023-01-03T05:02:37.136Z,8.73
2023-01-03T05:07:41.402Z,8.61
2023-01-03T05:12:59.675Z,8.81
2023-01-03T05:18:02.702Z,8.71
2023-01-03T05:23:24.665Z,8.72
2023-01-03T05:28:27.690Z,8.65
2023-01-03T05:33:30.885Z,8.60
2023-01-03T05:38:37.356Z,8.63
2023-01-03T05:43:40.307Z,8.63
2023-01-03T05:48:43.168Z,8.63
2023-01-03T05:53:47.416Z,8.70
2023-01-03T05:58:50.301Z,8.71
2023-01-03T06:03:53.902Z,8.67
2023-01-03T06:08:58.181Z,8.76
2023-01-03T06:14:02.236Z,8.61
2023-01-03T06:19:06.756Z,8.68
2023-01-03T06:24:11.378Z,8.64
2023-01-03T06:29:14.265Z,8.60
2023-01-03T06:34:17.397Z,8.69
2023-01-03T06:39:21.646Z,8.73
2023-01-03T06:44:24.540Z,8.63
2023-01-03T06:49:44.956Z,8.59
2023-01-03T06:54:49.511Z,8.49
2023-01-03T06:59:52.387Z,8.46
2023-01-03T07:04:55.329Z,8.48
2023-01-03T07:09:59.668Z,8.38
2023-01-03T07:15:02.654Z,8.46
2023-01-03T07:20:06.203Z,8.51
2023-01-03T07:25:11.012Z,8.29
2023-01-03T07:30:14.622Z,8.20
2023-01-03T07:35:17.774Z,8.27
2023-01-03T07:40:22.122Z,8.04
2023-01-03T07:45:24.978Z,8.08
2023-01-03T07:50:28.166Z,8.06
2023-01-03T07:55:35.329Z,8.13
2023-01-03T08:00:38.531Z,8.16
2023-01-03T08:05:41.469Z,8.00
2023-01-03T08:11:03.152Z,7.85
2023-01-03T08:16:06.643Z,7.99
2023-01-03T08:21:11.317Z,8.10
2023-01-03T08:26:17.718Z,8.02
2023-01-03T08:31:23.214Z,7.94
2023-01-03T08:36:28.137Z,7.98
2023-01-03T08:41:35.824Z,7.90
2023-01-03T08:46:42.205Z,8.05
2023-01-03T08:51:45.106Z,8.09
2023-01-03T08:56:49.374Z,8.09
2023-01-03T09:01:52.426Z,7.98
2023-01-03T09:06:55.577Z,8.06
2023-01-03T09:11:59.806Z,8.25
2023-01-03T09:17:02.728Z,8.17
2023-01-03T09:22:05.686Z,8.14
2023-01-03T09:27:09.972Z,8.27
2023-01-03T09:32:13.000Z,8.38
2023-01-03T09:37:15.958Z,8.47
2023-01-03T09:42:41.116Z,8.54
2023-01-03T09:47:44.959Z,8.51
2023-01-03T09:53:06.313Z,8.62
2023-01-03T09:58:33.062Z,8.55
2023-01-03T10:03:52.890Z,8.58
2023-01-03T10:09:07.865Z,8.71
2023-01-03T10:14:26.817Z,8.72
2023-01-03T10:20:02.407Z,8.66
2023-01-03T10:25:13.584Z,8.77
2023-01-03T10:30:21.209Z,8.74
2023-01-03T10:35:26.102Z,8.99
2023-01-03T10:40:36.788Z,9.17
2023-01-03T10:45:54.431Z,9.00
2023-01-03T10:50:57.411Z,9.39
2023-01-03T10:56:03.249Z,9.58
2023-01-03T11:01:23.240Z,9.33
2023-01-03T11:06:26.279Z,9.01
2023-01-03T11:11:32.722Z,9.09
2023-01-03T11:16:37.141Z,9.13
2023-01-03T11:21:46.951Z,9.13
2023-01-03T11:26:52.879Z,9.27
2023-01-03T11:32:07.664Z,9.23
2023-01-03T11:37:22.310Z,9.39
2023-01-03T11:42:40.089Z,9.32
2023-01-03T11:47:52.228Z,9.33
2023-01-03T11:53:00.391Z,9.53
2023-01-03T11:58:22.041Z,9.43
2023-01-03T12:03:40.149Z,9.70
2023-01-03T12:08:52.221Z,9.99
2023-01-03T12:14:04.885Z,10.15
2023-01-03T12:19:21.579Z,10.01
2023-01-03T12:24:34.062Z,10.16
2023-01-03T12:29:49.641Z,9.85
2023-01-03T12:35:12.725Z,9.82
2023-01-03T12:40:22.991Z,9.74
2023-01-03T12:45:42.612Z,9.30
2023-01-03T12:50:50.531Z,9.10
2023-01-03T12:56:11.468Z,8.96
2023-01-03T13:01:19.196Z,9.02
2023-01-03T13:06:26.641Z,8.77
2023-01-03T13:11:34.529Z,8.84
2023-01-03T13:16:46.502Z,8.67
2023-01-03T13:22:04.344Z,8.59
2023-01-03T13:27:34.790Z,8.62
2023-01-03T13:32:49.247Z,8.57
2023-01-03T13:37:54.876Z,8.60
2023-01-03T13:43:14.080Z,8.58
2023-01-03T13:48:19.386Z,8.71
2023-01-03T13:53:33.029Z,8.64
2023-01-03T13:58:44.421Z,8.65
2023-01-03T14:04:14.108Z,8.69
2023-01-03T14:09:34.413Z,8.57
2023-01-03T14:14:40.651Z,8.58
2023-01-03T14:19:50.926Z,8.47
2023-01-03T14:24:57.605Z,8.46
2023-01-03T14:30:01.904Z,8.34
2023-01-03T14:35:05.751Z,8.47
2023-01-03T14:40:20.645Z,8.33
2023-01-03T14:45:23.606Z,8.24
2023-01-03T14:50:29.453Z,8.18
2023-01-03T14:55:34.981Z,8.20
2023-01-03T15:00:39.446Z,8.16
2023-01-03T15:05:43.573Z,7.92
2023-01-03T15:10:50.757Z,7.97
2023-01-03T15:15:55.858Z,7.83
2023-01-03T15:21:01.513Z,7.74
2023-01-03T15:26:06.790Z,7.52
2023-01-03T15:31:28.588Z,7.56
2023-01-03T15:36:33.333Z,7.41
2023-01-03T15:42:34.696Z,7.30
2023-01-03T15:47:24.622Z,7.36
2023-01-03T15:52:28.042Z,7.44
2023-01-03T15:57:33.073Z,7.43
2023-01-03T16:02:36.370Z,7.30
2023-01-03T16:07:40.513Z,7.30
2023-01-03T16:12:45.197Z,7.25
2023-01-03T16:17:49.912Z,7.19
2023-01-03T16:23:00.862Z,7.15
2023-01-03T16:28:12.114Z,7.06
2023-01-03T16:33:20.866Z,7.06
2023-01-03T16:38:25.606Z,7.02
2023-01-03T16:43:30.040Z,7.13
2023-01-03T16:48:39.194Z,6.94
2023-01-03T16:53:42.790Z,6.97
2023-01-03T16:58:47.439Z,6.98
2023-01-03T17:03:50.960Z,6.97
2023-01-03T17:08:54.050Z,6.71
2023-01-03T17:14:02.589Z,6.66
2023-01-03T17:19:05.637Z,6.55
2023-01-03T17:24:14.432Z,6.52
2023-01-03T17:29:21.675Z,6.48
2023-01-03T17:34:27.134Z,6.58
2023-01-03T17:39:30.152Z,6.44
2023-01-03T17:44:34.989Z,6.41
2023-01-03T17:49:38.206Z,6.37
2023-01-03T17:54:42.181Z,6.42
2023-01-03T17:59:46.972Z,6.33
2023-01-03T18:05:15.098Z,6.47
2023-01-03T18:10:18.531Z,6.46
2023-01-03T18:15:23.327Z,6.44
2023-01-03T18:20:28.034Z,6.32
2023-01-03T18:25:31.859Z,6.38
2023-01-03T18:30:36.307Z,6.28
2023-01-03T18:35:40.457Z,6.30
2023-01-03T18:40:43.685Z,6.32
2023-01-03T18:45:48.478Z,6.22
2023-01-03T18:50:58.883Z,6.10
2023-01-03T18:56:03.028Z,6.25
2023-01-03T19:01:08.310Z,6.13
2023-01-03T19:06:18.042Z,6.26
2023-01-03T19:11:28.548Z,6.10
2023-01-03T19:16:34.592Z,6.12
2023-01-03T19:21:39.778Z,6.05
2023-01-03T19:26:46.741Z,5.89
2023-01-03T19:31:53.242Z,5.97
2023-01-03T19:36:56.237Z,5.94
2023-01-03T19:42:18.322Z,5.76
2023-01-03T19:47:22.609Z,6.10
2023-01-03T19:52:25.833Z,6.20
2023-01-03T19:57:34.002Z,5.91
2023-01-03T20:02:41.435Z,5.85
2023-01-03T20:07:45.091Z,5.97
2023-01-03T20:12:49.306Z,5.79
2023-01-03T20:17:54.213Z,5.87
2023-01-03T20:23:05.064Z,5.80
2023-01-03T20:28:16.529Z,5.95
2023-01-03T20:33:20.787Z,5.95
2023-01-03T20:38:27.619Z,5.96
2023-01-03T20:43:30.624Z,6.07
2023-01-03T20:48:34.965Z,6.04
2023-01-03T20:53:42.659Z,6.17
2023-01-03T20:58:46.121Z,6.25
2023-01-03T21:03:50.436Z,6.29
2023-01-03T21:08:58.100Z,6.24
2023-01-03T21:14:02.299Z,6.35
2023-01-03T21:19:09.117Z,6.38
2023-01-03T21:24:13.054Z,6.29
2023-01-03T21:29:16.221Z,6.57
2023-01-03T21:34:22.370Z,6.46
2023-01-03T21:39:25.263Z,6.35
2023-01-03T21:44:28.202Z,6.27
2023-01-03T21:49:32.549Z,6.25
2023-01-03T21:54:35.785Z,6.15
2023-01-03T21:59:38.868Z,5.94
2023-01-03T22:04:43.448Z,5.94
2023-01-03T22:10:03.881Z,5.89
2023-01-03T22:15:08.000Z,6.05
2023-01-03T22:20:15.036Z,6.04
2023-01-03T22:25:20.932Z,6.13
2023-01-03T22:30:24.795Z,6.05
2023-01-03T22:35:29.196Z,6.00
2023-01-03T22:40:32.165Z,6.01
2023-01-03T22:45:35.128Z,5.99
2023-01-03T22:50:40.672Z,6.06
2023-01-03T22:55:44.196Z,5.94
2023-01-03T23:00:47.253Z,5.73
2023-01-03T23:05:51.547Z,5.71
2023-01-03T23:11:14.489Z,5.74
2023-01-03T23:16:17.488Z,5.73
2023-01-03T23:21:21.808Z,5.66
2023-01-03T23:26:24.917Z,5.80
2023-01-03T23:31:28.487Z,5.90
2023-01-03T23:36:32.838Z,5.79
2023-01-03T23:41:35.816Z,5.85
2023-01-03T23:46:38.917Z,5.93
2023-01-03T23:51:43.485Z,5.84
2023-01-03T23:56:46.456Z,5.80
